Time;durP1;ratioP1;P1;durP2;ratioP2;P2;SDS_P1;SDS_P2;PMS_P1;PMS_P2;Temp;Humidity;BMP_temperature;BMP_pressure;BME280_temperature;BME280_humidity;BME280_pressure;Samples;Min_cycle;Max_cycle;Signal;HPM_P1;HPM_P2
2023/06/02 00:00:39;;;;;;;8.1;6.4;;;;;;;;;;;;;
2023/06/02 00:03:03;;;;;;;8.6;5.8;;;;;;;;;;;;;
2023/06/02 00:05:26;;;;;;;7.1;6;;;;;;;;;;;;;
2023/06/02 00:07:51;;;;;;;7;5.8;;;;;;;;;;;;;
2023/06/02 00:10:16;;;;;;;8.9;6.1;;;;;;;;;;;;;
2023/06/02 00:12:43;;;;;;;6.6;5.7;;;;;;;;;;;;;
2023/06/02 00:15:08;;;;;;;7.5;6.2;;;;;;;;;;;;;
2023/06/02 00:17:35;;;;;;;8;6.6;;;;;;;;;;;;;
2023/06/02 00:20:00;;;;;;;7.4;5.8;;;;;;;;;;;;;
2023/06/02 00:22:29;;;;;;;7.1;5.7;;;;;;;;;;;;;
2023/06/02 00:24:52;;;;;;;7.4;5.9;;;;;;;;;;;;;
2023/06/02 00:27:18;;;;;;;6.8;6.1;;;;;;;;;;;;;
2023/06/02 00:29:43;;;;;;;7;6.3;;;;;;;;;;;;;
2023/06/02 00:32:09;;;;;;;8.6;6.5;;;;;;;;;;;;;
2023/06/02 00:34:34;;;;;;;10.3;6.7;;;;;;;;;;;;;
2023/06/02 00:37:01;;;;;;;7;6.3;;;;;;;;;;;;;
2023/06/02 00:39:26;;;;;;;6.8;6.1;;;;;;;;;;;;;
2023/06/02 00:41:52;;;;;;;9.1;6.6;;;;;;;;;;;;;
2023/06/02 00:44:18;;;;;;;7.9;6.5;;;;;;;;;;;;;
2023/06/02 00:46:44;;;;;;;7.2;6.5;;;;;;;;;;;;;
2023/06/02 00:49:09;;;;;;;8.3;6.4;;;;;;;;;;;;;
2023/06/02 00:51:35;;;;;;;7.6;6.6;;;;;;;;;;;;;
2023/06/02 00:53:59;;;;;;;7.5;6.3;;;;;;;;;;;;;
2023/06/02 00:56:24;;;;;;;7.6;6.2;;;;;;;;;;;;;
2023/06/02 00:58:49;;;;;;;7.3;6.3;;;;;;;;;;;;;
2023/06/02 01:01:18;;;;;;;6.6;5.9;;;;;;;;;;;;;
2023/06/02 01:03:44;;;;;;;6.7;6;;;;;;;;;;;;;
2023/06/02 01:06:09;;;;;;;8.1;6.7;;;;;;;;;;;;;
2023/06/02 01:08:34;;;;;;;7.5;6.3;;;;;;;;;;;;;
2023/06/02 01:10:59;;;;;;;8.5;6.8;;;;;;;;;;;;;
2023/06/02 01:13:24;;;;;;;8.4;6.5;;;;;;;;;;;;;
2023/06/02 01:15:50;;;;;;;8.5;6.8;;;;;;;;;;;;;
2023/06/02 01:18:16;;;;;;;8.9;6.9;;;;;;;;;;;;;
2023/06/02 01:20:44;;;;;;;8.2;7.1;;;;;;;;;;;;;
2023/06/02 01:23:08;;;;;;;7.7;6.9;;;;;;;;;;;;;
2023/06/02 01:25:32;;;;;;;7.9;6.4;;;;;;;;;;;;;
2023/06/02 01:27:59;;;;;;;7;6.3;;;;;;;;;;;;;
2023/06/02 01:30:22;;;;;;;7;6.3;;;;;;;;;;;;;
2023/06/02 01:32:47;;;;;;;6.9;6.2;;;;;;;;;;;;;
2023/06/02 01:35:13;;;;;;;8;6.6;;;;;;;;;;;;;
2023/06/02 01:37:38;;;;;;;8.1;6.9;;;;;;;;;;;;;
2023/06/02 01:40:05;;;;;;;7.6;6.8;;;;;;;;;;;;;
2023/06/02 01:42:30;;;;;;;7.4;6.6;;;;;;;;;;;;;
2023/06/02 01:44:56;;;;;;;7.9;6.8;;;;;;;;;;;;;
2023/06/02 01:47:21;;;;;;;9.3;6.2;;;;;;;;;;;;;
2023/06/02 01:49:49;;;;;;;8.8;6.5;;;;;;;;;;;;;
2023/06/02 01:52:14;;;;;;;7.4;6.3;;;;;;;;;;;;;
2023/06/02 01:54:40;;;;;;;6.5;5.6;;;;;;;;;;;;;
2023/06/02 01:57:06;;;;;;;7.9;6.4;;;;;;;;;;;;;
2023/06/02 01:59:31;;;;;;;7.3;6.3;;;;;;;;;;;;;
2023/06/02 02:01:56;;;;;;;7.5;6.8;;;;;;;;;;;;;
2023/06/02 02:04:23;;;;;;;6.9;6.2;;;;;;;;;;;;;
2023/06/02 02:06:49;;;;;;;6.8;6.1;;;;;;;;;;;;;
2023/06/02 02:09:15;;;;;;;7.3;6.6;;;;;;;;;;;;;
2023/06/02 02:11:40;;;;;;;7.4;6.6;;;;;;;;;;;;;
2023/06/02 02:14:06;;;;;;;7.5;6.5;;;;;;;;;;;;;
2023/06/02 02:16:31;;;;;;;7.3;6.4;;;;;;;;;;;;;
2023/06/02 02:18:56;;;;;;;7.3;6.2;;;;;;;;;;;;;
2023/06/02 02:21:21;;;;;;;8.6;6.4;;;;;;;;;;;;;
2023/06/02 02:23:49;;;;;;;6.5;5.9;;;;;;;;;;;;;
2023/06/02 02:26:14;;;;;;;7.6;6.5;;;;;;;;;;;;;
2023/06/02 02:28:39;;;;;;;7;6.2;;;;;;;;;;;;;
2023/06/02 02:31:04;;;;;;;8.3;6.6;;;;;;;;;;;;;
2023/06/02 02:33:30;;;;;;;8.3;6.4;;;;;;;;;;;;;
2023/06/02 02:35:55;;;;;;;7.2;6.5;;;;;;;;;;;;;
2023/06/02 02:38:23;;;;;;;7.8;6.7;;;;;;;;;;;;;
2023/06/02 02:40:48;;;;;;;8.8;6.7;;;;;;;;;;;;;
2023/06/02 02:43:15;;;;;;;7.5;6.3;;;;;;;;;;;;;
2023/06/02 02:45:39;;;;;;;7.4;6.7;;;;;;;;;;;;;
2023/06/02 02:48:05;;;;;;;7.7;6.7;;;;;;;;;;;;;
2023/06/02 02:50:29;;;;;;;8.5;7.1;;;;;;;;;;;;;
2023/06/02 02:52:57;;;;;;;9.4;7;;;;;;;;;;;;;
2023/06/02 02:55:22;;;;;;;7.8;7;;;;;;;;;;;;;
2023/06/02 02:57:47;;;;;;;8;6.8;;;;;;;;;;;;;
2023/06/02 03:00:14;;;;;;;8.4;7.2;;;;;;;;;;;;;
2023/06/02 03:02:40;;;;;;;10.3;7.4;;;;;;;;;;;;;
2023/06/02 03:05:06;;;;;;;8.7;7;;;;;;;;;;;;;
2023/06/02 03:07:34;;;;;;;9.3;7.3;;;;;;;;;;;;;
2023/06/02 03:09:59;;;;;;;9.1;7;;;;;;;;;;;;;
2023/06/02 03:12:24;;;;;;;8.7;7.2;;;;;;;;;;;;;
2023/06/02 03:14:49;;;;;;;8.8;7.1;;;;;;;;;;;;;
2023/06/02 03:17:17;;;;;;;9.6;7.5;;;;;;;;;;;;;
2023/06/02 03:19:40;;;;;;;7.7;6.9;;;;;;;;;;;;;
2023/06/02 03:22:07;;;;;;;7.8;6.8;;;;;;;;;;;;;
2023/06/02 03:24:32;;;;;;;9.2;7.7;;;;;;;;;;;;;
2023/06/02 03:26:59;;;;;;;8.8;7.3;;;;;;;;;;;;;
2023/06/02 03:29:24;;;;;;;8.4;7.3;;;;;;;;;;;;;
2023/06/02 03:31:49;;;;;;;7.5;6.6;;;;;;;;;;;;;
2023/06/02 03:34:14;;;;;;;9.8;6.9;;;;;;;;;;;;;
2023/06/02 03:36:41;;;;;;;7.6;6.8;;;;;;;;;;;;;
2023/06/02 03:39:07;;;;;;;10.1;7.6;;;;;;;;;;;;;
2023/06/02 03:41:31;;;;;;;8.2;7.1;;;;;;;;;;;;;
2023/06/02 03:43:56;;;;;;;9.9;8;;;;;;;;;;;;;
2023/06/02 03:46:22;;;;;;;9.5;7.7;;;;;;;;;;;;;
2023/06/02 03:48:47;;;;;;;8.7;7.4;;;;;;;;;;;;;
2023/06/02 03:51:15;;;;;;;10.1;7.2;;;;;;;;;;;;;
2023/06/02 03:53:40;;;;;;;9.8;6.8;;;;;;;;;;;;;
2023/06/02 03:56:06;;;;;;;8.3;6.8;;;;;;;;;;;;;
2023/06/02 03:58:31;;;;;;;7.5;6.4;;;;;;;;;;;;;
2023/06/02 04:02:39;;;;;;;7.8;6.9;;;;;;;12.37;93.11523;936.4222;;;;
2023/06/02 04:05:11;;;;;;;8.7;6.7;;;;;;;12.23;93.62305;936.3903;;;;
2023/06/02 04:07:35;;;;;;;7.9;6.7;;;;;;;12.11;94.65332;936.3979;;;;
2023/06/02 04:10:05;;;;;;;7.8;7;;;;;;;12.26;94.22852;936.4334;;;;
2023/06/02 04:12:29;;;;;;;7.7;6.6;;;;;;;12.42;93.35645;936.44;;;;
2023/06/02 04:14:57;;;;;;;7.4;6.5;;;;;;;12.57;92.17285;936.4575;;;;
2023/06/02 04:17:22;;;;;;;9.1;6.8;;;;;;;12.69;91.3125;936.452;;;;
2023/06/02 04:19:54;;;;;;;8.8;6.9;;;;;;;12.68;91.45996;936.4791;;;;
2023/06/02 04:22:19;;;;;;;8;6.5;;;;;;;12.78;90.44824;936.451;;;;
2023/06/02 04:24:47;;;;;;;7.5;6.2;;;;;;;12.78;90.39063;936.4327;;;;
2023/06/02 04:27:19;;;;;;;8.1;6.1;;;;;;;12.86;89.95996;936.4559;;;;
2023/06/02 04:29:53;;;;;;;9.1;6.7;;;;;;;12.86;89.80078;936.4688;;;;
2023/06/02 04:32:18;;;;;;;9.1;6.2;;;;;;;12.95;89.49805;936.4301;;;;
2023/06/02 04:34:43;;;;;;;6.8;6;;;;;;;12.93;89.66504;936.4381;;;;
2023/06/02 04:37:11;;;;;;;7.6;6.3;;;;;;;12.93;89.45801;936.3311;;;;
2023/06/02 04:39:37;;;;;;;7.9;6.4;;;;;;;12.98;89.67578;936.4061;;;;
2023/06/02 04:42:05;;;;;;;10.9;7.2;;;;;;;12.98;89.53809;936.3869;;;;
2023/06/02 04:44:29;;;;;;;7.7;6.4;;;;;;;13.04;89.22754;936.3934;;;;
2023/06/02 04:46:59;;;;;;;6.9;6;;;;;;;13.06;89.03809;936.4437;;;;
2023/06/02 04:49:27;;;;;;;10.1;6.5;;;;;;;13.12;89.07422;936.358;;;;
2023/06/02 04:51:55;;;;;;;7.2;6.3;;;;;;;13.17;88.66992;936.4121;;;;
2023/06/02 04:54:24;;;;;;;8.3;6.4;;;;;;;13.17;88.81738;936.397;;;;
2023/06/02 04:56:49;;;;;;;7;6.2;;;;;;;12.91;89.68359;936.3743;;;;
2023/06/02 04:59:17;;;;;;;9.5;6.5;;;;;;;12.88;89.94238;936.4016;;;;
2023/06/02 05:01:42;;;;;;;7.5;6.4;;;;;;;13.02;90.63672;936.3711;;;;
2023/06/02 05:04:09;;;;;;;7.8;6.2;;;;;;;13.54;91.06738;936.3674;;;;
2023/06/02 05:06:34;;;;;;;7.7;5;;;;;;;14.72;86.53027;936.3328;;;;
2023/06/02 05:09:04;;;;;;;7.7;4.7;;;;;;;16.01;78.70313;936.2871;;;;
2023/06/02 05:11:29;;;;;;;6.5;4.9;;;;;;;16.92;76.25;936.3044;;;;
2023/06/02 05:13:59;;;;;;;7;5.2;;;;;;;18.13;68.95313;936.2391;;;;
2023/06/02 05:16:31;;;;;;;7.4;5;;;;;;;18.68;65.10938;936.2545;;;;
2023/06/02 05:18:55;;;;;;;5.3;4.4;;;;;;;18.64;65.86816;936.2791;;;;
2023/06/02 05:21:28;;;;;;;5.9;4.3;;;;;;;19.15;63.97754;936.2503;;;;
2023/06/02 05:23:58;;;;;;;5.4;4.2;;;;;;;18.53;64.58594;936.2592;;;;
2023/06/02 05:26:28;;;;;;;7.2;4.3;;;;;;;18.78;64.85449;936.2054;;;;
2023/06/02 05:28:59;;;;;;;7.4;4;;;;;;;18.73;64.62598;936.2292;;;;
2023/06/02 05:31:28;;;;;;;5;4.2;;;;;;;18.82;64.3252;936.1414;;;;
2023/06/02 05:33:53;;;;;;;4.6;3.9;;;;;;;20.07;62.35938;936.2146;;;;
2023/06/02 05:36:18;;;;;;;5.4;4.2;;;;;;;20.69;58.25391;936.2147;;;;
2023/06/02 05:38:48;;;;;;;5.8;3.9;;;;;;;19.76;60.25293;936.2109;;;;
2023/06/02 05:41:18;;;;;;;5.2;4.3;;;;;;;18.98;63.29004;936.1616;;;;
2023/06/02 05:43:45;;;;;;;6.6;4.5;;;;;;;20.29;60.23145;936.2103;;;;
2023/06/02 05:46:20;;;;;;;5.6;3.9;;;;;;;21.32;57.85547;936.1662;;;;
2023/06/02 05:48:45;;;;;;;5.7;4.1;;;;;;;22.16;54.44824;936.1267;;;;
2023/06/02 05:51:10;;;;;;;5.8;3.7;;;;;;;20.89;56.01172;936.1581;;;;
2023/06/02 05:53:40;;;;;;;5.8;3.8;;;;;;;21.44;54.93359;936.1344;;;;
2023/06/02 05:56:08;;;;;;;5.1;3.8;;;;;;;20.28;58.00195;936.1273;;;;
2023/06/02 05:58:33;;;;;;;6.1;4.4;;;;;;;19.59;60.84863;936.1443;;;;
2023/06/02 06:01:01;;;;;;;5;4.2;;;;;;;18.64;63.53027;936.1548;;;;
2023/06/02 06:03:27;;;;;;;6.8;4.7;;;;;;;18.1;65.89355;936.1077;;;;
2023/06/02 06:05:55;;;;;;;5.2;4.4;;;;;;;17.81;67.61523;936.1337;;;;
2023/06/02 06:08:20;;;;;;;6.9;5;;;;;;;17.48;69.06055;936.1297;;;;
2023/06/02 06:10:47;;;;;;;7.2;4.9;;;;;;;17.39;69.85742;936.0983;;;;
2023/06/02 06:13:12;;;;;;;6;4.7;;;;;;;16.98;71.56641;936.0742;;;;
2023/06/02 06:15:40;;;;;;;6.7;4.8;;;;;;;16.95;72.40723;936.1142;;;;
2023/06/02 06:18:06;;;;;;;6.3;5.1;;;;;;;17.01;72.19629;936.1445;;;;
2023/06/02 06:20:33;;;;;;;6.8;4.9;;;;;;;16.9;73.46484;936.1247;;;;
2023/06/02 06:22:58;;;;;;;7.5;6.1;;;;;;;16.94;74.63086;936.1778;;;;
2023/06/02 06:25:27;;;;;;;6.5;5;;;;;;;17.09;74.27246;936.0764;;;;
2023/06/02 06:27:52;;;;;;;6.7;5.7;;;;;;;17.19;73.94336;936.1315;;;;
2023/06/02 06:30:21;;;;;;;7.4;5.6;;;;;;;17.03;75.14453;936.1483;;;;
2023/06/02 06:32:46;;;;;;;7.8;5.6;;;;;;;17.02;74.97949;936.1357;;;;
2023/06/02 06:35:16;;;;;;;6;5.1;;;;;;;17.01;73.23926;936.1524;;;;
2023/06/02 06:37:47;;;;;;;6.9;4.8;;;;;;;16.94;72.18555;936.1216;;;;
2023/06/02 06:40:18;;;;;;;6.4;4.7;;;;;;;17.86;69.36523;936.0506;;;;
2023/06/02 06:42:43;;;;;;;5.4;4.7;;;;;;;18.34;67.79004;936.1394;;;;
2023/06/02 06:45:12;;;;;;;7.1;4.8;;;;;;;18.31;73.46777;936.1522;;;;
2023/06/02 06:47:41;;;;;;;6.2;5.2;;;;;;;18.43;69.09277;936.1399;;;;
2023/06/02 06:50:06;;;;;;;7.7;5.3;;;;;;;19.8;66.71875;936.0782;;;;
2023/06/02 06:52:35;;;;;;;5.7;4.8;;;;;;;21.51;58.33789;936.0331;;;;
2023/06/02 06:55:05;;;;;;;7;4.2;;;;;;;23.41;51.35645;936.0464;;;;
2023/06/02 06:57:29;;;;;;;4.9;4.1;;;;;;;24.67;46.7041;935.9933;;;;
2023/06/02 06:59:56;;;;;;;7.1;4;;;;;;;25.49;44.41406;936.0261;;;;
2023/06/02 07:02:21;;;;;;;6;3.9;;;;;;;24.45;47.38574;935.973;;;;
2023/06/02 07:04:50;;;;;;;4.8;3.9;;;;;;;21.99;53.85352;935.9778;;;;
2023/06/02 07:07:15;;;;;;;4.9;3.8;;;;;;;23.55;51.2666;935.9542;;;;
2023/06/02 07:09:44;;;;;;;4.2;3.6;;;;;;;26.22;45.25684;935.9572;;;;
2023/06/02 07:12:30;;;;;;;5.5;3.8;;;;;;;26.14;44.78613;935.9642;;;;
2023/06/02 07:15:01;;;;;;;5.1;3.9;;;;;;;25.48;44.10645;935.902;;;;
2023/06/02 07:17:26;;;;;;;6.2;3.5;;;;;;;26.29;43.81934;935.8794;;;;
2023/06/02 07:19:57;;;;;;;4.9;3.6;;;;;;;27.48;40.26855;935.8886;;;;
2023/06/02 07:22:27;;;;;;;4.5;3.9;;;;;;;25.67;43.49902;935.8834;;;;
2023/06/02 07:24:58;;;;;;;6;3.8;;;;;;;24.99;48.02344;935.8769;;;;
2023/06/02 07:27:23;;;;;;;4.8;4.1;;;;;;;25.24;47.64844;935.856;;;;
2023/06/02 07:29:48;;;;;;;5.5;4;;;;;;;25.43;49.05078;935.827;;;;
2023/06/02 07:32:18;;;;;;;6.6;4.3;;;;;;;25.23;50.17383;935.8053;;;;
2023/06/02 07:34:47;;;;;;;4.9;3.9;;;;;;;24.93;47.28418;935.7619;;;;
2023/06/02 07:37:12;;;;;;;6.4;4.2;;;;;;;26.73;45.6748;935.7443;;;;
2023/06/02 07:39:37;;;;;;;5.1;4;;;;;;;28.46;40.80957;935.7417;;;;
2023/06/02 07:42:07;;;;;;;6.3;3.9;;;;;;;28.74;39.71582;935.7564;;;;
2023/06/02 07:44:39;;;;;;;5.6;3.5;;;;;;;28.91;41.38672;935.7076;;;;
2023/06/02 07:47:10;;;;;;;6.8;3.7;;;;;;;29.69;38.07031;935.6608;;;;
2023/06/02 07:49:34;;;;;;;5.5;3.7;;;;;;;29.13;37.54688;935.6259;;;;
2023/06/02 07:52:01;;;;;;;4.6;3.6;;;;;;;28.89;41.43164;935.5962;;;;
2023/06/02 07:54:26;;;;;;;8.3;4.1;;;;;;;28.66;43.95703;935.5696;;;;
2023/06/02 07:56:54;;;;;;;4.9;3.9;;;;;;;28.31;42.68555;935.5733;;;;
2023/06/02 07:59:19;;;;;;;4.1;3.4;;;;;;;27.82;41.85547;935.5706;;;;
2023/06/02 08:01:47;;;;;;;5.1;3.5;;;;;;;28.78;40.08887;935.6108;;;;
2023/06/02 08:04:12;;;;;;;6.9;3.7;;;;;;;29.94;38.93945;935.6077;;;;
2023/06/02 08:06:39;;;;;;;6.5;3.6;;;;;;;29.32;39.66016;935.6437;;;;
2023/06/02 08:09:05;;;;;;;4.8;3.6;;;;;;;31.8;33.57715;935.6565;;;;
2023/06/02 08:11:32;;;;;;;4.3;3.5;;;;;;;32.4;32.35059;935.6505;;;;
2023/06/02 08:13:57;;;;;;;4.6;3.4;;;;;;;28.23;39.9209;935.6175;;;;
2023/06/02 08:16:26;;;;;;;4.3;3.6;;;;;;;29.82;37.73633;935.6359;;;;
2023/06/02 08:18:50;;;;;;;5.5;3.2;;;;;;;28.31;39.9043;935.5517;;;;
2023/06/02 08:21:21;;;;;;;5.1;3.8;;;;;;;29.52;38.52148;935.5289;;;;
2023/06/02 08:23:51;;;;;;;6.5;3.5;;;;;;;31.88;33.42676;935.6165;;;;
2023/06/02 08:26:17;;;;;;;5.1;3.9;;;;;;;30.97;34.08984;935.5374;;;;
2023/06/02 08:28:49;;;;;;;4.6;3.7;;;;;;;28.97;40.61719;935.6485;;;;
2023/06/02 08:31:12;;;;;;;4;3.6;;;;;;;28.99;38.63086;935.6206;;;;
2023/06/02 08:33:40;;;;;;;6.5;3.6;;;;;;;30.42;36.67578;935.5087;;;;
2023/06/02 08:36:06;;;;;;;4.9;3.4;;;;;;;28.11;43.88965;935.4998;;;;
2023/06/02 08:38:31;;;;;;;6;3.6;;;;;;;28.41;39.92383;935.4543;;;;
2023/06/02 08:40:56;;;;;;;6.2;4;;;;;;;29.1;41.22461;935.5446;;;;
2023/06/02 08:43:26;;;;;;;5.7;3.7;;;;;;;28.18;41.71094;935.5117;;;;
2023/06/02 08:45:51;;;;;;;5;3.7;;;;;;;29.9;38.58887;935.5153;;;;
2023/06/02 08:48:17;;;;;;;5.2;4.1;;;;;;;28.07;41.08301;935.4922;;;;
2023/06/02 08:50:41;;;;;;;4.8;3.7;;;;;;;28.03;42.03027;935.4725;;;;
2023/06/02 08:53:11;;;;;;;4.2;3.8;;;;;;;28.1;42.2627;935.5109;;;;
2023/06/02 08:55:39;;;;;;;5;3.8;;;;;;;28.7;40.56836;935.4821;;;;
2023/06/02 08:58:01;;;;;;;5.8;4;;;;;;;27.17;42.90918;935.5154;;;;
2023/06/02 09:00:28;;;;;;;5.4;4.1;;;;;;;26.3;43.91504;935.4725;;;;
2023/06/02 09:02:53;;;;;;;4.5;3.8;;;;;;;27.09;41.01758;935.3835;;;;
2023/06/02 09:05:26;;;;;;;6.2;4;;;;;;;27.92;43.05273;935.53;;;;
2023/06/02 09:07:56;;;;;;;5.3;3.9;;;;;;;29.7;37.53516;935.5097;;;;
2023/06/02 09:10:26;;;;;;;5.5;3.7;;;;;;;29.09;39.17578;935.4291;;;;
2023/06/02 09:12:57;;;;;;;6.1;4.5;;;;;;;30.21;38.87988;935.5148;;;;
2023/06/02 09:15:22;;;;;;;6.8;4;;;;;;;29.68;37.9873;935.4691;;;;
2023/06/02 09:17:47;;;;;;;4.7;3.8;;;;;;;28.43;40.97266;935.4924;;;;
2023/06/02 09:20:18;;;;;;;4.8;3.7;;;;;;;28.82;39.06836;935.454;;;;
2023/06/02 09:22:48;;;;;;;5.4;3.7;;;;;;;29.29;39.14551;935.3999;;;;
2023/06/02 09:25:13;;;;;;;5.7;4;;;;;;;29.31;38.61133;935.4576;;;;
2023/06/02 09:27:39;;;;;;;6.6;4.4;;;;;;;28.04;39.69043;935.3281;;;;
2023/06/02 09:30:05;;;;;;;5.4;3.8;;;;;;;27.62;40.65039;935.4085;;;;
2023/06/02 09:32:32;;;;;;;4.9;3.7;;;;;;;27.28;43.14551;935.3723;;;;
2023/06/02 09:34:57;;;;;;;5.7;3.5;;;;;;;27.61;40.75488;935.3892;;;;
2023/06/02 09:37:23;;;;;;;4.4;4;;;;;;;27.47;40.60156;935.4205;;;;
2023/06/02 09:39:48;;;;;;;6.2;3.9;;;;;;;27.27;41.05664;935.405;;;;
2023/06/02 09:42:16;;;;;;;4.8;3.7;;;;;;;27.49;41.38574;935.3472;;;;
2023/06/02 09:44:41;;;;;;;5.3;3.9;;;;;;;26.53;42.79004;935.3942;;;;
2023/06/02 09:47:10;;;;;;;5.5;3.7;;;;;;;27.29;40.22949;935.4413;;;;
2023/06/02 09:49:35;;;;;;;4.3;3.6;;;;;;;27.1;41.06543;935.3731;;;;
2023/06/02 09:52:02;;;;;;;6.3;3.5;;;;;;;27.12;41.14941;935.3803;;;;
2023/06/02 09:54:27;;;;;;;5;3.4;;;;;;;26.73;42.32324;935.4348;;;;
2023/06/02 09:56:52;;;;;;;5.6;3.6;;;;;;;26.63;43.04785;935.4093;;;;
2023/06/02 09:59:20;;;;;;;4.7;3.5;;;;;;;27.19;41.07422;935.4297;;;;
2023/06/02 10:01:46;;;;;;;8.5;3.9;;;;;;;26.64;40.98828;935.3875;;;;
2023/06/02 10:04:13;;;;;;;6;3.6;;;;;;;26.2;43.89355;935.4211;;;;
2023/06/02 10:06:46;;;;;;;8.4;4.1;;;;;;;25.65;44.50098;935.3445;;;;
2023/06/02 10:09:14;;;;;;;4.7;3.6;;;;;;;26.24;41.08203;935.3489;;;;
2023/06/02 10:11:43;;;;;;;5.1;3.4;;;;;;;25.34;42.77051;935.3585;;;;
2023/06/02 10:14:09;;;;;;;4.5;3.4;;;;;;;25.69;40.46289;935.3826;;;;
2023/06/02 10:16:34;;;;;;;4.1;3.2;;;;;;;26.26;40.34961;935.3544;;;;
2023/06/02 10:18:59;;;;;;;6.1;3.5;;;;;;;26.48;39.95508;935.3484;;;;
2023/06/02 10:21:24;;;;;;;7.1;3.5;;;;;;;26.01;43.27148;935.4005;;;;
2023/06/02 10:23:49;;;;;;;4.7;3.8;;;;;;;24.81;45.19727;935.3403;;;;
2023/06/02 10:26:15;;;;;;;7.4;3.8;;;;;;;25.17;44.33691;935.3652;;;;
2023/06/02 10:28:44;;;;;;;5.7;3.5;;;;;;;25.48;44.4375;935.3149;;;;
2023/06/02 10:31:15;;;;;;;6.4;3.4;;;;;;;25.11;45.23926;935.2543;;;;
2023/06/02 10:33:40;;;;;;;5.5;3.8;;;;;;;25.18;42.3418;935.3337;;;;
2023/06/02 10:36:05;;;;;;;6.3;3.7;;;;;;;25.08;43.38281;935.287;;;;
2023/06/02 10:38:33;;;;;;;6;3.5;;;;;;;24.95;47.08691;935.3272;;;;
2023/06/02 10:40:58;;;;;;;6.8;3.1;;;;;;;24.56;47.12891;935.285;;;;
2023/06/02 10:43:24;;;;;;;5;3.4;;;;;;;24.82;44.86719;935.2372;;;;
2023/06/02 10:45:50;;;;;;;8.2;3.7;;;;;;;25.07;42.42578;935.2338;;;;
2023/06/02 10:48:14;;;;;;;4.6;3.2;;;;;;;25.23;44.2832;935.1376;;;;
2023/06/02 10:50:39;;;;;;;5.7;2.9;;;;;;;24.98;41.24805;935.1613;;;;
2023/06/02 10:53:06;;;;;;;5.6;3.6;;;;;;;24.78;44.17871;935.1792;;;;
2023/06/02 10:55:34;;;;;;;6.9;3.5;;;;;;;25.03;43.63672;935.0564;;;;
2023/06/02 10:58:01;;;;;;;7.8;3.3;;;;;;;25.21;42.72168;935.0609;;;;
2023/06/02 11:00:24;;;;;;;4.9;3.3;;;;;;;25.04;42.43555;935.1194;;;;
2023/06/02 11:02:50;;;;;;;5.3;3.4;;;;;;;24.84;44.39648;935.0764;;;;
2023/06/02 11:05:15;;;;;;;5.2;3.1;;;;;;;25.16;43.93262;935.1257;;;;
2023/06/02 11:07:45;;;;;;;5.5;2.8;;;;;;;24.9;44.12012;935.1075;;;;
2023/06/02 11:10:17;;;;;;;6.3;3.3;;;;;;;24.76;44.03516;935.0753;;;;
2023/06/02 11:12:42;;;;;;;5.8;2.9;;;;;;;24.92;44.07422;935.0829;;;;
2023/06/02 11:15:08;;;;;;;6;3.5;;;;;;;25.37;40.85938;935.0433;;;;
2023/06/02 11:17:40;;;;;;;5.7;3.5;;;;;;;25.38;41.2041;935.0154;;;;
2023/06/02 11:20:13;;;;;;;5.6;3.5;;;;;;;25.09;44.30371;935.0737;;;;
2023/06/02 11:22:38;;;;;;;7.5;3.4;;;;;;;25.33;41.74219;935.0283;;;;
2023/06/02 11:25:03;;;;;;;4.3;3.2;;;;;;;25.15;44.66406;935.0122;;;;
2023/06/02 11:27:29;;;;;;;4.8;3.3;;;;;;;25.58;41.36426;934.997;;;;
2023/06/02 11:29:54;;;;;;;5.6;3.8;;;;;;;25.71;42.02539;934.9402;;;;
2023/06/02 11:32:19;;;;;;;6;3.3;;;;;;;25.89;39.6543;934.9719;;;;
2023/06/02 11:34:49;;;;;;;3.7;3;;;;;;;25.68;42.03516;934.8992;;;;
2023/06/02 11:37:14;;;;;;;3.5;3.1;;;;;;;25.96;39.31836;934.9542;;;;
2023/06/02 11:39:39;;;;;;;6.2;3;;;;;;;25.82;43.09863;934.8306;;;;
2023/06/02 11:42:05;;;;;;;5.3;3.1;;;;;;;26;42.50098;934.8667;;;;
2023/06/02 11:44:35;;;;;;;4.5;3.1;;;;;;;26.32;40.58008;934.9038;;;;
2023/06/02 11:47:00;;;;;;;6.2;3.3;;;;;;;26.44;40.22363;934.8722;;;;
2023/06/02 11:49:27;;;;;;;6.1;3.2;;;;;;;26.14;39.87793;934.8303;;;;
2023/06/02 11:51:52;;;;;;;4.1;3;;;;;;;25.5;43.22266;934.8211;;;;
2023/06/02 11:54:21;;;;;;;6;3;;;;;;;25.63;42.95117;934.82;;;;
2023/06/02 11:56:46;;;;;;;3.7;3.1;;;;;;;25.18;43.98242;934.7938;;;;
2023/06/02 11:59:13;;;;;;;7.7;3.2;;;;;;;25.06;45.06738;934.7748;;;;
2023/06/02 12:01:45;;;;;;;5.2;3.4;;;;;;;25.09;42.91211;934.7436;;;;
2023/06/02 12:04:13;;;;;;;5.4;3;;;;;;;25.24;41.82813;934.7394;;;;
2023/06/02 12:06:40;;;;;;;5.2;3.3;;;;;;;25.43;41.11328;934.7695;;;;
2023/06/02 12:09:09;;;;;;;5;2.9;;;;;;;25.09;44.35254;934.7224;;;;
2023/06/02 12:11:34;;;;;;;4.1;3.1;;;;;;;25;45.42773;934.6998;;;;
2023/06/02 12:14:02;;;;;;;6.4;3.5;;;;;;;25.28;42.96484;934.7274;;;;
2023/06/02 12:16:29;;;;;;;5;3.4;;;;;;;25.38;42.5625;934.7344;;;;
2023/06/02 12:18:55;;;;;;;4.6;3.1;;;;;;;25.53;42.46973;934.6981;;;;
2023/06/02 12:21:25;;;;;;;7.3;3.1;;;;;;;25.6;43.18457;934.6886;;;;
2023/06/02 12:23:52;;;;;;;3.4;2.9;;;;;;;25.62;40.18555;934.6155;;;;
2023/06/02 12:26:20;;;;;;;4.3;3.2;;;;;;;25.82;41.24316;934.6194;;;;
2023/06/02 12:28:47;;;;;;;6.1;3.5;;;;;;;25.7;39.14063;934.5012;;;;
2023/06/02 12:31:13;;;;;;;4.6;3;;;;;;;25.62;41.78027;934.5971;;;;
2023/06/02 12:33:37;;;;;;;4.9;3.1;;;;;;;25.89;40.5293;934.5815;;;;
2023/06/02 12:36:07;;;;;;;5.4;3.1;;;;;;;25.88;41.6748;934.6082;;;;
2023/06/02 12:38:36;;;;;;;3.6;3.1;;;;;;;25.78;39.92773;934.5489;;;;
2023/06/02 12:41:00;;;;;;;6.6;2.9;;;;;;;26.16;37.54785;934.5405;;;;
2023/06/02 12:43:28;;;;;;;5.1;3;;;;;;;26.01;41.67578;934.5444;;;;
2023/06/02 12:45:53;;;;;;;4.6;2.7;;;;;;;25.73;40.36133;934.5753;;;;
2023/06/02 12:48:21;;;;;;;6.2;2.8;;;;;;;25.16;41.33594;934.4787;;;;
2023/06/02 12:50:45;;;;;;;6.1;3.2;;;;;;;25.22;44.55371;934.5403;;;;
2023/06/02 12:53:16;;;;;;;7;3.5;;;;;;;25.62;41.85059;934.5531;;;;
2023/06/02 12:55:45;;;;;;;4.7;3.1;;;;;;;25.23;40.50488;934.5687;;;;
2023/06/02 12:58:10;;;;;;;3.9;3.2;;;;;;;25.36;40.58789;934.5789;;;;
2023/06/02 13:00:39;;;;;;;6.9;3;;;;;;;25.23;41.04785;934.5078;;;;
2023/06/02 13:03:06;;;;;;;4.3;3;;;;;;;25.08;40.96289;934.5144;;;;
2023/06/02 13:05:31;;;;;;;5.2;3;;;;;;;25.04;40.74707;934.4705;;;;
2023/06/02 13:07:56;;;;;;;5.9;3.1;;;;;;;25.24;41.44922;934.4772;;;;
2023/06/02 13:10:28;;;;;;;5;2.9;;;;;;;25.52;40.2002;934.5085;;;;
2023/06/02 13:12:56;;;;;;;3.7;3;;;;;;;25.61;40.59863;934.5231;;;;
2023/06/02 13:15:28;;;;;;;4.8;3.2;;;;;;;25.44;39.91016;934.4738;;;;
2023/06/02 13:17:55;;;;;;;3.7;2.8;;;;;;;25.38;40.17676;934.3903;;;;
2023/06/02 13:20:26;;;;;;;4.2;3.2;;;;;;;25.57;41.25488;934.4564;;;;
2023/06/02 13:22:57;;;;;;;9.3;3;;;;;;;25.82;41.59863;934.4412;;;;
2023/06/02 13:25:24;;;;;;;6.1;3;;;;;;;25.5;43.9082;934.4281;;;;
2023/06/02 13:27:49;;;;;;;7.4;3.3;;;;;;;25;40.66113;934.4313;;;;
2023/06/02 13:30:18;;;;;;;7.9;2.9;;;;;;;25.41;40.88672;934.481;;;;
2023/06/02 13:32:42;;;;;;;6.5;3.2;;;;;;;25.42;42.02246;934.3881;;;;
2023/06/02 13:35:15;;;;;;;4.7;3.1;;;;;;;25.46;41.06934;934.4524;;;;
2023/06/02 13:37:42;;;;;;;6;3.3;;;;;;;25.69;41.33789;934.4274;;;;
2023/06/02 13:40:07;;;;;;;5.1;3.1;;;;;;;25.32;40.32324;934.2926;;;;
2023/06/02 13:42:36;;;;;;;5.8;3;;;;;;;25.38;41.07422;934.4001;;;;
2023/06/02 13:45:01;;;;;;;5.3;3.1;;;;;;;25.47;42.65234;934.384;;;;
2023/06/02 13:47:27;;;;;;;5.3;3;;;;;;;25.63;41.8418;934.32;;;;
2023/06/02 13:49:52;;;;;;;5.4;3.2;;;;;;;25.03;43.15332;934.3524;;;;
2023/06/02 13:52:21;;;;;;;5.4;3.1;;;;;;;25.22;41.07031;934.2938;;;;
2023/06/02 13:54:46;;;;;;;5.2;3.1;;;;;;;25.58;40.52539;934.2947;;;;
2023/06/02 13:57:14;;;;;;;4.7;2.8;;;;;;;25.77;41.07324;934.2809;;;;
2023/06/02 13:59:39;;;;;;;6.5;3.3;;;;;;;25.89;40.87207;934.2722;;;;
2023/06/02 14:02:07;;;;;;;4.5;2.7;;;;;;;26.01;41.59277;934.2695;;;;
2023/06/02 14:04:32;;;;;;;4.9;2.7;;;;;;;25.82;41.1377;934.3278;;;;
2023/06/02 14:07:01;;;;;;;4.5;2.9;;;;;;;25.45;41.44629;934.3072;;;;
2023/06/02 14:09:30;;;;;;;3.9;2.9;;;;;;;25.73;39.19141;934.314;;;;
2023/06/02 14:11:55;;;;;;;5.6;3.7;;;;;;;25.94;38.38184;934.2938;;;;
2023/06/02 14:14:25;;;;;;;4.7;2.9;;;;;;;26.19;38.69922;934.3139;;;;
2023/06/02 14:16:50;;;;;;;5.5;3.1;;;;;;;25.86;41.59082;934.298;;;;
2023/06/02 14:19:16;;;;;;;8.6;3.3;;;;;;;25.37;40.32715;934.3553;;;;
2023/06/02 14:21:41;;;;;;;4.5;3.4;;;;;;;25.23;45.02637;934.3602;;;;
2023/06/02 14:24:10;;;;;;;4.3;2.9;;;;;;;25.61;41.08301;934.3945;;;;
2023/06/02 14:26:35;;;;;;;3.6;2.9;;;;;;;25.69;38.63184;934.3011;;;;
2023/06/02 14:29:02;;;;;;;4.4;3;;;;;;;25.67;37.73145;934.2798;;;;
2023/06/02 14:31:27;;;;;;;5.8;3.1;;;;;;;25.83;37.2959;934.29;;;;
2023/06/02 14:33:52;;;;;;;4.5;2.9;;;;;;;25.93;38.16895;934.2777;;;;
2023/06/02 14:36:19;;;;;;;6.5;2.7;;;;;;;26.07;37.74219;934.253;;;;
2023/06/02 14:38:44;;;;;;;6.1;2.9;;;;;;;25.98;38.55078;934.2882;;;;
2023/06/02 14:41:12;;;;;;;3.3;3;;;;;;;26.11;39.18848;934.2111;;;;
2023/06/02 14:43:37;;;;;;;5.9;3;;;;;;;26.15;37.79688;934.2346;;;;
2023/06/02 14:46:07;;;;;;;6.8;3.1;;;;;;;26.18;37.37305;934.2534;;;;
2023/06/02 14:48:37;;;;;;;5.6;3;;;;;;;26;38.87207;934.2518;;;;
2023/06/02 14:51:06;;;;;;;5.3;3.3;;;;;;;25.69;38.67871;934.2033;;;;
2023/06/02 14:53:31;;;;;;;4;2.9;;;;;;;25.66;40.01172;934.2797;;;;
2023/06/02 14:55:58;;;;;;;4.3;3;;;;;;;25.22;41.25879;934.2824;;;;
2023/06/02 14:58:23;;;;;;;3.7;3.2;;;;;;;25.29;42.51855;934.2825;;;;
2023/06/02 15:00:49;;;;;;;7.9;3.2;;;;;;;25.6;38.89648;934.2408;;;;
2023/06/02 15:03:15;;;;;;;5.4;3.3;;;;;;;25.64;39.01758;934.1902;;;;
2023/06/02 15:05:43;;;;;;;5.9;2.9;;;;;;;25.7;37.85254;934.192;;;;
2023/06/02 15:08:12;;;;;;;4.5;3;;;;;;;25.77;38.62695;934.2164;;;;
2023/06/02 15:10:38;;;;;;;5.9;2.9;;;;;;;25.76;40.00977;934.2111;;;;
2023/06/02 15:13:06;;;;;;;4.7;3.2;;;;;;;25.84;38.52637;934.261;;;;
2023/06/02 15:15:32;;;;;;;9.5;3.6;;;;;;;25.7;39.97949;934.2442;;;;
2023/06/02 15:18:01;;;;;;;7.5;3.3;;;;;;;25.61;39.46387;934.1638;;;;
2023/06/02 15:20:30;;;;;;;5;3.4;;;;;;;25.33;39.19141;934.1942;;;;
2023/06/02 15:22:55;;;;;;;5.2;3.2;;;;;;;25.26;39.66895;934.1938;;;;
2023/06/02 15:25:25;;;;;;;4.6;3;;;;;;;25.44;40.46387;934.1381;;;;
2023/06/02 15:27:56;;;;;;;5.1;3.2;;;;;;;25.42;39.19922;934.1817;;;;
2023/06/02 15:30:21;;;;;;;3.8;3;;;;;;;25.46;38.32813;934.1664;;;;
2023/06/02 15:32:51;;;;;;;4;3.2;;;;;;;25.38;38.77051;934.2015;;;;
2023/06/02 15:35:17;;;;;;;4.7;3.2;;;;;;;25.21;38.95605;934.1809;;;;
2023/06/02 15:37:50;;;;;;;8.6;3.2;;;;;;;25.05;39.88672;934.2065;;;;
2023/06/02 15:40:15;;;;;;;4.6;2.9;;;;;;;24.7;42.61426;934.1912;;;;